createdAt,value
2019-04-28T13:13:34.890Z,1008.49
2019-04-28T13:18:34.965Z,1008.58
2019-04-28T13:28:34.544Z,1008.67
2019-04-28T13:33:32.870Z,1008.75
2019-04-28T13:43:32.927Z,1008.79
2019-04-28T13:48:31.980Z,1008.83
2019-04-28T13:53:30.957Z,1008.87
2019-04-28T13:58:30.894Z,1008.91
2019-04-28T14:03:31.028Z,1008.95
2019-04-28T14:08:31.077Z,1008.95
2019-04-28T14:13:31.022Z,1008.98
2019-04-28T14:18:31.047Z,1008.91
2019-04-28T14:23:30.231Z,1008.89
2019-04-28T14:28:30.177Z,1008.91
2019-04-28T14:33:28.960Z,1008.89
2019-04-28T14:38:28.273Z,1008.98
2019-04-28T14:43:28.055Z,1008.96
2019-04-28T14:48:27.371Z,1008.99
2019-04-28T14:53:28.068Z,1009.11
2019-04-28T14:58:27.046Z,1009.04
2019-04-28T15:03:26.983Z,1009.01
2019-04-28T15:08:27.049Z,1009.03
2019-04-28T15:13:26.102Z,1009.05
2019-04-28T15:18:26.086Z,1009.06
2019-04-28T15:23:25.306Z,1009.09
2019-04-28T15:28:26.081Z,1009.22
2019-04-28T15:33:25.507Z,1009.21
2019-04-28T15:38:24.268Z,1009.18
2019-04-28T15:43:25.050Z,1009.13
2019-04-28T15:48:25.224Z,1009.15
2019-04-28T15:58:24.077Z,1009.16
2019-04-28T16:03:24.135Z,1009.10
2019-04-28T16:08:23.671Z,1009.20
2019-04-28T16:13:23.296Z,1009.23
2019-04-28T16:23:22.685Z,1009.23
2019-04-28T16:33:21.796Z,1009.41
2019-04-28T16:43:21.286Z,1009.36
2019-04-28T16:53:20.366Z,1009.51
2019-04-28T17:03:20.360Z,1009.57
2019-04-28T17:13:20.364Z,1009.64
2019-04-28T17:23:20.782Z,1009.73
2019-04-28T17:33:20.379Z,1009.73
2019-04-28T17:43:21.730Z,1009.83
2019-04-28T17:53:21.504Z,1009.85
2019-04-28T18:03:21.480Z,1010.01
2019-04-28T18:13:21.507Z,1010.28
2019-04-28T18:23:21.458Z,1010.40
2019-04-28T18:33:21.846Z,1010.61
2019-04-28T18:43:20.567Z,1010.76
2019-04-28T18:53:20.778Z,1010.89
2019-04-28T19:03:21.648Z,1011.11
2019-04-28T19:13:22.711Z,1011.25
2019-04-28T19:23:21.572Z,1011.40
2019-04-28T19:33:21.112Z,1011.52
2019-04-28T19:43:20.666Z,1011.58
2019-04-28T20:03:19.592Z,1011.78
2019-04-28T20:13:18.869Z,1011.76
2019-04-28T20:23:18.639Z,1011.94
2019-04-28T20:33:18.885Z,1011.92
2019-04-28T20:43:18.201Z,1012.08
2019-04-28T20:53:19.349Z,1012.09
2019-04-28T21:03:17.723Z,1012.25
2019-04-28T21:13:17.877Z,1012.29
2019-04-28T21:23:17.749Z,1012.37
2019-04-28T21:33:17.870Z,1012.45
2019-04-28T21:43:18.131Z,1012.48
2019-04-28T21:53:17.455Z,1012.35
2019-04-28T22:03:16.970Z,1012.48
2019-04-28T22:13:15.909Z,1012.53
2019-04-28T22:23:18.585Z,1012.55
2019-04-28T22:33:15.899Z,1012.66
2019-04-28T22:43:16.069Z,1012.62
2019-04-28T22:53:15.938Z,1012.76
2019-04-28T23:03:15.234Z,1012.72
2019-04-28T23:13:15.979Z,1012.89
2019-04-28T23:23:17.730Z,1012.96
2019-04-28T23:33:17.049Z,1012.98
2019-04-28T23:43:18.101Z,1013.00
2019-04-28T23:53:18.112Z,1013.10
